createdAt,value
2023-09-17T00:01:19.539Z,15.39
2023-09-17T00:03:46.274Z,15.40
2023-09-17T00:06:13.045Z,15.38
2023-09-17T00:08:39.531Z,15.37
2023-09-17T00:11:08.149Z,15.39
2023-09-17T00:13:34.760Z,15.35
2023-09-17T00:16:01.665Z,15.36
2023-09-17T00:18:28.642Z,15.39
2023-09-17T00:20:55.105Z,15.39
2023-09-17T00:23:21.739Z,15.46
2023-09-17T00:25:48.254Z,15.49
2023-09-17T00:28:15.023Z,15.58
2023-09-17T00:30:41.724Z,15.59
2023-09-17T00:33:08.249Z,15.61
2023-09-17T00:35:34.795Z,15.60
2023-09-17T00:38:01.284Z,15.52
2023-09-17T00:40:31.423Z,15.50
2023-09-17T00:42:57.880Z,15.44
2023-09-17T00:45:24.553Z,15.40
2023-09-17T00:47:51.474Z,15.41
2023-09-17T00:50:18.083Z,15.38
2023-09-17T00:52:45.988Z,15.38
2023-09-17T00:55:12.491Z,15.37
2023-09-17T00:57:41.830Z,15.35
2023-09-17T01:00:10.979Z,15.36
2023-09-17T01:02:39.151Z,15.30
2023-09-17T01:05:06.406Z,15.21
2023-09-17T01:07:34.746Z,15.17
2023-09-17T01:10:02.272Z,15.15
2023-09-17T01:12:28.835Z,15.17
2023-09-17T01:14:56.080Z,15.12
2023-09-17T01:17:28.684Z,15.10
2023-09-17T01:19:56.483Z,15.13
2023-09-17T01:22:30.597Z,15.17
2023-09-17T01:25:07.830Z,15.15
2023-09-17T01:27:34.779Z,15.06
2023-09-17T01:30:01.192Z,15.04
2023-09-17T01:32:27.657Z,15.02
2023-09-17T01:34:54.345Z,15.02
2023-09-17T01:37:35.550Z,14.97
2023-09-17T01:40:11.888Z,14.91
2023-09-17T01:42:41.404Z,14.88
2023-09-17T01:45:10.329Z,14.89
2023-09-17T01:47:38.312Z,14.90
2023-09-17T01:50:06.174Z,14.88
2023-09-17T01:52:35.857Z,14.85
2023-09-17T01:55:03.712Z,14.79
2023-09-17T01:57:30.641Z,14.75
2023-09-17T01:59:57.240Z,14.70
2023-09-17T02:02:24.303Z,14.71
2023-09-17T02:04:50.759Z,14.70
2023-09-17T02:07:17.505Z,14.66
2023-09-17T02:09:44.105Z,14.69
2023-09-17T02:12:10.625Z,14.62
2023-09-17T02:14:37.053Z,14.58
2023-09-17T02:17:04.439Z,14.54
2023-09-17T02:19:30.810Z,14.49
2023-09-17T02:21:57.283Z,14.52
2023-09-17T02:24:23.705Z,14.52
2023-09-17T02:26:50.149Z,14.53
2023-09-17T02:29:16.659Z,14.46
2023-09-17T02:31:43.199Z,14.49
2023-09-17T02:34:09.786Z,14.48
2023-09-17T02:36:37.627Z,14.41
2023-09-17T02:39:04.802Z,14.41
2023-09-17T02:41:31.253Z,14.41
2023-09-17T02:43:58.385Z,14.40
2023-09-17T02:46:24.921Z,14.39
2023-09-17T02:48:52.165Z,14.38
2023-09-17T02:51:18.634Z,14.39
2023-09-17T02:53:47.963Z,14.35
2023-09-17T02:56:14.645Z,14.34
2023-09-17T02:58:41.253Z,14.36
2023-09-17T03:01:19.332Z,14.37
2023-09-17T03:03:46.537Z,14.32
2023-09-17T03:06:13.355Z,14.28
2023-09-17T03:08:42.672Z,14.30
2023-09-17T03:11:14.924Z,14.34
2023-09-17T03:13:43.367Z,14.33
2023-09-17T03:16:10.341Z,14.28
2023-09-17T03:18:36.801Z,14.30
2023-09-17T03:21:07.366Z,14.26
2023-09-17T03:23:34.480Z,14.28
2023-09-17T03:26:04.645Z,14.30
2023-09-17T03:28:34.493Z,14.27
2023-09-17T03:31:02.150Z,14.24
2023-09-17T03:33:29.296Z,14.22
2023-09-17T03:35:55.956Z,14.21
2023-09-17T03:38:22.382Z,14.23
2023-09-17T03:40:48.878Z,14.22
2023-09-17T03:43:15.794Z,14.20
2023-09-17T03:45:42.557Z,14.22
2023-09-17T03:48:09.202Z,14.26
2023-09-17T03:50:40.520Z,14.22
2023-09-17T03:53:07.765Z,14.24
2023-09-17T03:55:35.396Z,14.25
2023-09-17T03:58:02.771Z,14.27
2023-09-17T04:00:29.243Z,14.28
2023-09-17T04:02:56.224Z,14.30
2023-09-17T04:05:23.288Z,14.27
2023-09-17T04:07:49.874Z,14.28
2023-09-17T04:10:18.440Z,14.22
2023-09-17T04:12:46.365Z,14.20
2023-09-17T04:15:17.882Z,14.19
2023-09-17T04:17:45.678Z,14.19
2023-09-17T04:20:15.693Z,14.21
2023-09-17T04:22:43.308Z,14.22
2023-09-17T04:25:11.138Z,14.22
2023-09-17T04:27:38.720Z,14.16
2023-09-17T04:30:08.527Z,14.21
2023-09-17T04:32:38.800Z,14.16
2023-09-17T04:35:09.363Z,14.18
2023-09-17T04:37:36.865Z,14.15
2023-09-17T04:40:09.642Z,14.20
2023-09-17T04:42:37.218Z,14.16
2023-09-17T04:45:05.354Z,14.16
2023-09-17T04:47:34.490Z,14.17
2023-09-17T04:50:01.403Z,14.14
2023-09-17T04:52:28.058Z,14.20
2023-09-17T04:54:54.882Z,14.19
2023-09-17T04:57:21.367Z,14.20
2023-09-17T04:59:47.970Z,14.23
2023-09-17T05:02:17.771Z,14.22
2023-09-17T05:04:46.086Z,14.20
2023-09-17T05:07:12.895Z,14.22
2023-09-17T05:09:39.363Z,14.23
2023-09-17T05:12:06.822Z,14.22
2023-09-17T05:14:33.197Z,14.23
2023-09-17T05:16:59.714Z,14.26
2023-09-17T05:19:26.274Z,14.25
2023-09-17T05:21:52.861Z,14.27
2023-09-17T05:24:19.387Z,14.30
2023-09-17T05:26:45.852Z,14.35
2023-09-17T05:29:16.871Z,14.36
2023-09-17T05:31:43.828Z,14.36
2023-09-17T05:34:10.613Z,14.41
2023-09-17T05:36:37.059Z,14.45
2023-09-17T05:39:04.505Z,14.48
2023-09-17T05:41:31.255Z,14.54
2023-09-17T05:43:57.740Z,14.65
2023-09-17T05:46:24.288Z,14.72
2023-09-17T05:48:50.818Z,14.83
2023-09-17T05:51:17.317Z,14.91
2023-09-17T05:53:43.769Z,15.03
2023-09-17T05:56:12.350Z,15.18
2023-09-17T05:58:39.003Z,15.30
2023-09-17T06:01:05.866Z,15.48
2023-09-17T06:03:32.797Z,15.66
2023-09-17T06:05:59.489Z,15.86
2023-09-17T06:08:29.325Z,16.09
2023-09-17T06:10:56.631Z,16.30
2023-09-17T06:13:23.945Z,16.51
2023-09-17T06:15:50.880Z,16.82
2023-09-17T06:18:18.806Z,17.02
2023-09-17T06:20:45.516Z,17.30
2023-09-17T06:23:11.996Z,17.56
2023-09-17T06:25:38.846Z,17.84
2023-09-17T06:28:05.724Z,18.10
2023-09-17T06:30:32.274Z,18.39
2023-09-17T06:32:58.753Z,18.56
2023-09-17T06:35:25.598Z,18.95
2023-09-17T06:37:52.144Z,19.25
2023-09-17T06:40:18.797Z,19.43
2023-09-17T06:42:45.248Z,19.65
2023-09-17T06:45:12.621Z,19.80
2023-09-17T06:47:39.155Z,19.95
2023-09-17T06:50:07.488Z,20.19
2023-09-17T06:52:34.108Z,20.35
2023-09-17T06:55:00.589Z,20.57
2023-09-17T06:57:27.153Z,20.73
2023-09-17T06:59:54.391Z,20.86
2023-09-17T07:02:20.741Z,20.95
2023-09-17T07:04:47.388Z,21.02
2023-09-17T07:07:13.855Z,20.65
2023-09-17T07:09:40.322Z,20.65
2023-09-17T07:12:07.405Z,20.94
2023-09-17T07:14:34.100Z,21.22
2023-09-17T07:17:00.635Z,21.58
2023-09-17T07:19:28.582Z,21.93
2023-09-17T07:21:55.222Z,22.23
2023-09-17T07:24:21.839Z,22.23
2023-09-17T07:26:48.344Z,22.56
2023-09-17T07:29:14.858Z,22.89
2023-09-17T07:31:42.528Z,22.89
2023-09-17T07:34:09.008Z,23.15
2023-09-17T07:36:35.610Z,23.37
2023-09-17T07:39:02.164Z,23.66
2023-09-17T07:41:31.559Z,23.84
2023-09-17T07:43:58.793Z,23.87
2023-09-17T07:46:25.473Z,24.01
2023-09-17T07:48:52.042Z,23.66
2023-09-17T07:51:18.800Z,23.54
2023-09-17T07:53:47.384Z,23.43
2023-09-17T07:56:15.257Z,23.34
2023-09-17T07:58:43.883Z,23.03
2023-09-17T08:01:12.452Z,22.97
2023-09-17T08:03:38.898Z,23.43
2023-09-17T08:06:06.588Z,23.71
2023-09-17T08:08:33.632Z,23.72
2023-09-17T08:11:00.074Z,24.03
2023-09-17T08:13:26.629Z,24.19
2023-09-17T08:15:53.208Z,24.28
2023-09-17T08:18:19.726Z,24.13
2023-09-17T08:20:46.400Z,24.21
2023-09-17T08:23:12.858Z,24.47
2023-09-17T08:25:39.259Z,24.52
2023-09-17T08:28:10.066Z,24.59
2023-09-17T08:30:39.803Z,24.97
2023-09-17T08:33:06.878Z,25.13
2023-09-17T08:35:33.338Z,24.96
2023-09-17T08:38:00.124Z,25.01
2023-09-17T08:40:31.335Z,24.85
2023-09-17T08:43:00.083Z,25.20
2023-09-17T08:45:28.784Z,25.27
2023-09-17T08:47:55.580Z,25.22
2023-09-17T08:50:22.232Z,25.02
2023-09-17T08:52:55.174Z,25.32
2023-09-17T08:55:22.882Z,25.58
2023-09-17T08:58:02.869Z,25.39
2023-09-17T09:00:32.978Z,25.38
2023-09-17T09:03:05.161Z,25.77
2023-09-17T09:05:32.152Z,25.97
2023-09-17T09:07:58.769Z,25.96
2023-09-17T09:10:25.873Z,26.35
2023-09-17T09:12:52.922Z,26.72
2023-09-17T09:15:19.369Z,26.93
2023-09-17T09:17:45.810Z,27.05
2023-09-17T09:20:12.920Z,27.13
2023-09-17T09:22:39.800Z,27.17
2023-09-17T09:25:08.539Z,27.18
2023-09-17T09:27:35.011Z,27.03
2023-09-17T09:30:05.996Z,27.10
2023-09-17T09:32:33.396Z,27.23
2023-09-17T09:35:02.690Z,26.93
2023-09-17T09:37:29.734Z,27.23
2023-09-17T09:39:56.669Z,27.11
2023-09-17T09:42:27.113Z,27.42
2023-09-17T09:44:54.727Z,27.39
2023-09-17T09:47:23.942Z,27.39
2023-09-17T09:49:51.194Z,27.46
2023-09-17T09:52:19.237Z,27.61
2023-09-17T09:54:47.503Z,27.71
2023-09-17T09:57:19.617Z,27.82
2023-09-17T09:59:48.763Z,28.23
2023-09-17T10:02:17.389Z,28.19
2023-09-17T10:04:47.712Z,28.09
2023-09-17T10:07:15.930Z,28.05
2023-09-17T10:09:42.868Z,28.17
2023-09-17T10:12:09.980Z,28.05
2023-09-17T10:14:38.863Z,27.90
2023-09-17T10:17:11.222Z,27.92
2023-09-17T10:19:38.044Z,27.91
2023-09-17T10:22:08.581Z,27.82
2023-09-17T10:24:37.922Z,28.23
2023-09-17T10:27:08.533Z,28.30
2023-09-17T10:29:39.761Z,28.26
2023-09-17T10:32:07.025Z,28.39
2023-09-17T10:34:36.883Z,28.53
2023-09-17T10:37:04.859Z,28.67
2023-09-17T10:39:34.289Z,28.43
2023-09-17T10:42:07.059Z,28.06
2023-09-17T10:44:37.521Z,27.89
2023-09-17T10:47:07.498Z,27.85
2023-09-17T10:49:37.580Z,27.75
2023-09-17T10:52:06.180Z,28.01
2023-09-17T10:54:32.680Z,28.22
2023-09-17T10:57:05.503Z,28.19
2023-09-17T10:59:32.517Z,28.06
2023-09-17T11:02:00.110Z,28.33
2023-09-17T11:04:27.683Z,28.57
2023-09-17T11:06:55.217Z,28.80
2023-09-17T11:09:22.028Z,28.87
2023-09-17T11:11:48.678Z,29.14
2023-09-17T11:14:16.682Z,29.31
2023-09-17T11:16:43.525Z,29.35
2023-09-17T11:19:17.490Z,29.58
2023-09-17T11:21:48.939Z,29.14
2023-09-17T11:24:18.971Z,29.13
2023-09-17T11:26:46.756Z,29.26
2023-09-17T11:29:13.778Z,29.35
2023-09-17T11:31:52.510Z,29.24
2023-09-17T11:34:19.105Z,29.29
2023-09-17T11:36:49.043Z,29.58
2023-09-17T11:39:17.215Z,29.80
2023-09-17T11:41:47.619Z,29.60
2023-09-17T11:44:14.761Z,29.34
2023-09-17T11:46:43.442Z,29.48
2023-09-17T11:49:13.043Z,29.54
2023-09-17T11:51:44.325Z,29.44
2023-09-17T11:54:17.042Z,29.69
2023-09-17T11:56:49.015Z,29.58
2023-09-17T11:59:18.391Z,29.71
2023-09-17T12:01:56.012Z,29.83
2023-09-17T12:04:27.757Z,29.47
2023-09-17T12:06:55.329Z,29.34
2023-09-17T12:09:39.573Z,29.08
2023-09-17T12:12:07.770Z,29.20
2023-09-17T12:14:34.691Z,28.75
2023-09-17T12:17:02.559Z,28.48
2023-09-17T12:19:29.930Z,28.47
2023-09-17T12:21:59.556Z,28.31
2023-09-17T12:24:45.690Z,28.12
2023-09-17T12:27:25.676Z,27.80
2023-09-17T12:29:55.486Z,27.70
2023-09-17T12:32:26.668Z,27.58
2023-09-17T12:34:54.591Z,27.49
2023-09-17T12:37:22.555Z,27.47
2023-09-17T12:39:50.955Z,27.57
2023-09-17T12:42:22.144Z,27.57
2023-09-17T12:44:49.522Z,27.71
2023-09-17T12:47:16.759Z,27.62
2023-09-17T12:49:43.986Z,27.69
2023-09-17T12:52:12.275Z,27.62
2023-09-17T12:54:39.058Z,27.45
2023-09-17T12:57:05.551Z,27.64
2023-09-17T12:59:32.790Z,27.47
2023-09-17T13:02:01.598Z,27.41
2023-09-17T13:04:42.282Z,27.00
2023-09-17T13:07:29.001Z,27.08
2023-09-17T13:09:59.750Z,27.14
2023-09-17T13:12:29.349Z,27.18
2023-09-17T13:14:56.476Z,27.31
2023-09-17T13:17:24.663Z,27.16
2023-09-17T13:19:51.824Z,27.17
2023-09-17T13:22:20.168Z,27.23
2023-09-17T13:24:47.227Z,27.27
2023-09-17T13:27:18.434Z,27.07
2023-09-17T13:29:52.565Z,27.15
2023-09-17T13:32:20.407Z,27.17
2023-09-17T13:34:47.750Z,27.25
2023-09-17T13:37:15.781Z,27.20
2023-09-17T13:39:47.083Z,27.14
2023-09-17T13:42:13.640Z,27.23
2023-09-17T13:44:40.518Z,27.17
2023-09-17T13:47:08.771Z,27.15
2023-09-17T13:49:35.388Z,27.14
2023-09-17T13:52:01.963Z,27.17
2023-09-17T13:54:28.480Z,27.06
2023-09-17T13:56:54.989Z,27.03
2023-09-17T13:59:21.503Z,27.11
2023-09-17T14:01:48.191Z,27.07
2023-09-17T14:04:15.005Z,27.12
2023-09-17T14:06:41.504Z,26.93
2023-09-17T14:09:08.111Z,26.80
2023-09-17T14:11:36.998Z,26.89
2023-09-17T14:14:04.455Z,26.94
2023-09-17T14:16:31.125Z,26.78
2023-09-17T14:18:57.567Z,26.88
2023-09-17T14:21:24.130Z,26.75
2023-09-17T14:23:50.584Z,26.79
2023-09-17T14:26:17.071Z,26.78
2023-09-17T14:28:43.598Z,26.83
2023-09-17T14:31:10.120Z,26.75
2023-09-17T14:33:36.665Z,26.68
2023-09-17T14:36:03.673Z,26.69
2023-09-17T14:38:30.186Z,26.67
2023-09-17T14:40:56.630Z,26.87
2023-09-17T14:43:23.773Z,26.84
2023-09-17T14:45:50.395Z,26.75
2023-09-17T14:48:17.014Z,26.77
2023-09-17T14:50:43.472Z,26.75
2023-09-17T14:53:10.098Z,26.80
2023-09-17T14:55:36.690Z,26.74
2023-09-17T14:58:03.578Z,26.74
2023-09-17T15:00:29.947Z,26.75
2023-09-17T15:02:56.596Z,26.63
2023-09-17T15:05:23.221Z,26.63
2023-09-17T15:07:50.302Z,26.60
2023-09-17T15:10:16.938Z,26.54
2023-09-17T15:12:43.396Z,26.51
2023-09-17T15:15:11.603Z,26.40
2023-09-17T15:17:38.416Z,26.43
2023-09-17T15:20:05.665Z,26.32
2023-09-17T15:22:32.396Z,26.40
2023-09-17T15:24:58.852Z,26.33
2023-09-17T15:27:25.913Z,26.39
2023-09-17T15:29:53.259Z,26.32
2023-09-17T15:32:23.309Z,26.23
2023-09-17T15:34:50.097Z,26.19
2023-09-17T15:37:16.715Z,26.21
2023-09-17T15:39:44.591Z,26.10
2023-09-17T15:42:11.012Z,26.17
2023-09-17T15:44:38.482Z,26.02
2023-09-17T15:47:05.364Z,25.96
2023-09-17T15:49:31.962Z,25.96
2023-09-17T15:51:58.626Z,25.91
2023-09-17T15:54:25.330Z,25.93
2023-09-17T15:56:51.997Z,25.86
2023-09-17T15:59:18.465Z,25.83
2023-09-17T16:01:45.761Z,25.85
2023-09-17T16:04:12.602Z,25.79
2023-09-17T16:06:39.755Z,25.76
2023-09-17T16:09:06.226Z,25.58
2023-09-17T16:11:33.907Z,25.59
2023-09-17T16:14:00.460Z,25.65
2023-09-17T16:16:27.111Z,25.58
2023-09-17T16:18:53.769Z,25.53
2023-09-17T16:21:20.233Z,25.48
2023-09-17T16:23:46.784Z,25.37
2023-09-17T16:26:13.592Z,25.30
2023-09-17T16:28:40.399Z,25.28
2023-09-17T16:31:06.912Z,25.33
2023-09-17T16:33:33.665Z,25.23
2023-09-17T16:36:00.810Z,25.14
2023-09-17T16:38:27.441Z,24.99
2023-09-17T16:40:54.160Z,24.97
2023-09-17T16:43:22.161Z,24.92
2023-09-17T16:45:48.666Z,24.93
2023-09-17T16:48:15.098Z,24.86
2023-09-17T16:50:41.609Z,24.78
2023-09-17T16:53:08.216Z,24.74
2023-09-17T16:55:37.407Z,24.72
2023-09-17T16:58:04.228Z,24.57
2023-09-17T17:00:30.695Z,24.45
2023-09-17T17:02:57.296Z,24.36
2023-09-17T17:05:23.829Z,24.29
2023-09-17T17:07:50.516Z,24.27
2023-09-17T17:10:17.581Z,24.30
2023-09-17T17:12:43.961Z,24.27
2023-09-17T17:15:10.811Z,24.10
2023-09-17T17:17:38.075Z,24.05
2023-09-17T17:20:05.143Z,23.96
2023-09-17T17:22:41.697Z,23.73
2023-09-17T17:25:09.148Z,23.62
2023-09-17T17:27:35.732Z,23.51
2023-09-17T17:30:03.682Z,23.31
2023-09-17T17:32:31.341Z,23.29
2023-09-17T17:34:57.858Z,23.16
2023-09-17T17:37:24.285Z,23.17
2023-09-17T17:39:50.695Z,23.13
2023-09-17T17:42:17.298Z,23.18
2023-09-17T17:44:43.810Z,23.14
2023-09-17T17:47:10.609Z,22.93
2023-09-17T17:49:37.108Z,22.71
2023-09-17T17:52:04.422Z,22.60
2023-09-17T17:54:31.513Z,22.45
2023-09-17T17:56:58.527Z,22.44
2023-09-17T17:59:25.292Z,22.41
2023-09-17T18:01:52.089Z,22.36
2023-09-17T18:04:18.704Z,22.29
2023-09-17T18:06:45.119Z,22.34
2023-09-17T18:09:11.716Z,22.36
2023-09-17T18:11:38.217Z,22.30
2023-09-17T18:14:04.847Z,22.10
2023-09-17T18:16:31.390Z,21.99
2023-09-17T18:18:57.981Z,21.86
2023-09-17T18:21:24.523Z,21.75
2023-09-17T18:23:51.377Z,21.64
2023-09-17T18:26:17.988Z,21.59
2023-09-17T18:28:44.619Z,21.53
2023-09-17T18:31:11.532Z,21.50
2023-09-17T18:33:39.148Z,21.47
2023-09-17T18:36:06.548Z,21.44
2023-09-17T18:38:33.217Z,21.43
2023-09-17T18:40:59.670Z,21.36
2023-09-17T18:43:26.158Z,21.34
2023-09-17T18:45:52.703Z,21.28
2023-09-17T18:48:19.284Z,21.19
2023-09-17T18:50:45.922Z,21.10
2023-09-17T18:53:12.415Z,21.18
2023-09-17T18:55:38.935Z,21.16
2023-09-17T18:58:05.401Z,21.18
2023-09-17T19:00:31.916Z,21.17
2023-09-17T19:02:58.458Z,21.08
2023-09-17T19:05:26.267Z,21.09
2023-09-17T19:07:52.798Z,21.07
2023-09-17T19:10:19.501Z,21.02
2023-09-17T19:12:46.152Z,21.02
2023-09-17T19:15:12.791Z,21.01
2023-09-17T19:17:39.319Z,21.05
2023-09-17T19:20:07.084Z,20.94
2023-09-17T19:22:34.539Z,20.91
2023-09-17T19:25:01.155Z,20.90
2023-09-17T19:27:29.041Z,20.85
2023-09-17T19:29:55.541Z,20.83
2023-09-17T19:32:22.104Z,20.74
2023-09-17T19:34:48.603Z,20.67
2023-09-17T19:37:16.189Z,20.59
2023-09-17T19:39:42.786Z,20.59
2023-09-17T19:42:09.584Z,20.58
2023-09-17T19:44:36.274Z,20.57
2023-09-17T19:47:02.780Z,20.53
2023-09-17T19:49:29.270Z,20.44
2023-09-17T19:51:55.723Z,20.38
2023-09-17T19:54:22.176Z,20.32
2023-09-17T19:56:48.770Z,20.25
2023-09-17T19:59:15.787Z,20.16
2023-09-17T20:01:42.630Z,20.12
2023-09-17T20:04:09.327Z,20.11
2023-09-17T20:06:47.772Z,20.09
2023-09-17T20:09:24.058Z,20.04
2023-09-17T20:11:50.607Z,20.01
2023-09-17T20:14:17.175Z,19.96
2023-09-17T20:16:43.684Z,19.94
2023-09-17T20:19:11.063Z,19.86
2023-09-17T20:21:37.482Z,19.75
2023-09-17T20:24:05.891Z,19.70
2023-09-17T20:26:32.424Z,19.61
2023-09-17T20:28:59.881Z,19.55
2023-09-17T20:31:26.429Z,19.44
2023-09-17T20:33:52.956Z,19.48
2023-09-17T20:36:19.360Z,19.43
2023-09-17T20:38:52.639Z,19.40
2023-09-17T20:41:19.518Z,19.39
2023-09-17T20:43:46.319Z,19.38
2023-09-17T20:46:13.147Z,19.31
2023-09-17T20:48:39.663Z,19.32
2023-09-17T20:51:06.474Z,19.26
2023-09-17T20:53:33.418Z,19.22
2023-09-17T20:56:00.326Z,19.18
2023-09-17T20:58:27.324Z,19.15
2023-09-17T21:00:53.928Z,19.12
2023-09-17T21:03:20.681Z,19.05
2023-09-17T21:05:50.333Z,19.00
2023-09-17T21:08:17.098Z,19.01
2023-09-17T21:10:43.933Z,18.93
2023-09-17T21:13:12.080Z,18.86
2023-09-17T21:15:39.685Z,18.78
2023-09-17T21:18:07.462Z,18.73
2023-09-17T21:20:34.109Z,18.68
2023-09-17T21:23:01.409Z,18.66
2023-09-17T21:25:28.184Z,18.63
2023-09-17T21:27:55.311Z,18.65
2023-09-17T21:30:21.854Z,18.63
2023-09-17T21:32:48.648Z,18.61
2023-09-17T21:35:15.720Z,18.54
2023-09-17T21:37:42.287Z,18.53
2023-09-17T21:40:09.632Z,18.50
2023-09-17T21:42:37.017Z,18.51
2023-09-17T21:45:04.219Z,18.54
2023-09-17T21:47:31.079Z,18.44
2023-09-17T21:50:00.745Z,18.42
2023-09-17T21:52:29.879Z,18.38
2023-09-17T21:54:57.520Z,18.32
2023-09-17T21:57:24.588Z,18.25
2023-09-17T21:59:51.293Z,18.23
2023-09-17T22:02:18.155Z,18.16
2023-09-17T22:04:44.736Z,18.17
2023-09-17T22:07:11.584Z,18.11
2023-09-17T22:09:39.863Z,18.04
2023-09-17T22:12:08.014Z,18.08
2023-09-17T22:14:35.575Z,18.19
2023-09-17T22:17:05.992Z,18.26
2023-09-17T22:19:33.985Z,18.42
2023-09-17T22:22:00.472Z,18.63
2023-09-17T22:24:26.887Z,18.67
2023-09-17T22:26:53.398Z,18.75
2023-09-17T22:29:20.064Z,18.85
2023-09-17T22:31:46.611Z,19.16
2023-09-17T22:34:13.035Z,19.22
2023-09-17T22:36:40.505Z,19.30
2023-09-17T22:39:07.211Z,19.45
2023-09-17T22:41:33.775Z,19.37
2023-09-17T22:44:11.932Z,19.43
2023-09-17T22:46:46.708Z,19.41
2023-09-17T22:49:13.594Z,19.50
2023-09-17T22:51:40.101Z,19.51
2023-09-17T22:54:06.504Z,19.49
2023-09-17T22:56:33.522Z,19.61
2023-09-17T22:59:00.117Z,19.69
2023-09-17T23:01:26.778Z,19.78
2023-09-17T23:03:53.250Z,19.78
2023-09-17T23:06:19.983Z,19.71
2023-09-17T23:08:46.418Z,19.71
2023-09-17T23:11:13.282Z,19.78
2023-09-17T23:13:41.199Z,19.89
2023-09-17T23:16:07.969Z,19.96
2023-09-17T23:18:35.142Z,20.05
2023-09-17T23:21:05.319Z,20.15
2023-09-17T23:23:32.585Z,19.97
2023-09-17T23:26:01.240Z,20.05
2023-09-17T23:28:33.591Z,20.08
2023-09-17T23:31:11.892Z,20.13
2023-09-17T23:33:38.365Z,20.10
2023-09-17T23:36:05.247Z,20.02
2023-09-17T23:38:32.809Z,20.07
2023-09-17T23:40:59.345Z,20.02
2023-09-17T23:43:26.035Z,20.01
2023-09-17T23:45:52.929Z,19.92
2023-09-17T23:48:19.474Z,19.98
2023-09-17T23:50:45.947Z,19.87
2023-09-17T23:53:12.830Z,19.88
2023-09-17T23:55:39.580Z,19.96
2023-09-17T23:58:06.045Z,19.90
